Bluejacket, OK (74333)

7:59 PM CDT on August 20, 2014 (GMT -0500)
W5GFI | Change Station
CLOSE
Current Station
Personal Weather Station
Location: Vinita, OK
Elevation: 725 ft
Nearby Weather Stations

Elev 725 ft 36.65 °N, 95.16 °W | Updated 3 minutes ago

Clear
Clear
85.8 °F
Feels Like 91 °F
N
3.0
Wind Variable Wind from SE
Gusts 4.0 mph

Today
High -- | Low -- °F
--% Chance of Precip.
Yesterday
High -- | Low -- °F
Precip. -- in
6:41 AM 8:05 PM
Waning Crescent, 18% visible
Pressure 29.92 in
Visibility 10.0 miles
Clouds Clear
Heat Index 91 °F
Dew Point 71 °F
Humidity 61%
Rainfall 0.00 in
Snow Depth Not available.
UV 0 out of 12
Pollen 9.10 out of 12
Air Quality Not available.
Flu Activity Not available.
METAR KGMJ 210035Z AUTO 17006KT 10SM CLR 29/18 A2992 RMK AO2

More Conditions Fewer Conditions

Pressure 29.92 in
Visibility 10.0 miles
Clouds Clear
Heat Index 91 °F
Dew Point 71 °F
Humidity 61%
Rainfall 0.00 in
Snow Depth Not available.
UV 0 out of 12
Pollen 9.10 out of 12
Air Quality Not available.
Flu Activity Not available.
METAR KGMJ 210035Z AUTO 17006KT 10SM CLR 29/18 A2992 RMK AO2

More Conditions Fewer Conditions

10-Day Weather Forecast

Almanac

Astronomy

Aug. 20, 2014 Rise Set
Actual Time 6:41 AM CDT 8:05 PM CDT
Civil Twilight 6:14 AM CDT 8:32 PM CDT
Nautical Twilight 5:41 AM CDT 9:04 PM CDT
Astronomical Twilight 5:07 AM CDT 9:38 PM CDT
Moon 2:25 AM CDT (8/20) 4:48 PM CDT (8/20)
Length of Visible Light 14h 17m
Length of Day
13h 23m
Tomorrow will be 2m 7s shorter.
Waning Crescent, 18% of the Moon is Illuminated
Today
Waning Crescent
Aug 25
New
Sep 2
First Quarter
Sep 8
Full
Sep 15
Last Quarter

Today's Extremes

State Highs State Lows

Community

WunderPhotos

Upload Photos

1,745,823 photos uploaded!

WunderBlogs® & News

Nearby

Snow Depth

Station Depth Elevation
No new snow has been reported.

Earthquake Activity

City Distance Mag. Time & Date
Boley, Oklahoma 124 miles 2.8 11:38 AM CDT
2014-08-14
Minimum magnitude displayed is 2.5.

Coastal Water Temperatures

Place Temperature
No Stations Reporting

Nearby Weather Stations